sensor_id;sensor_type;location;lat;lon;timestamp;pressure;altitude;pressure_sealevel;temperature;humidity
43741;BME280;29352;48.708;9.290;2023-09-07T00:01:48;98138.78;;;12.59;65.82
43741;BME280;29352;48.708;9.290;2023-09-07T00:04:14;98137.63;;;12.12;66.91
43741;BME280;29352;48.708;9.290;2023-09-07T00:06:42;98146.00;;;11.97;66.59
43741;BME280;29352;48.708;9.290;2023-09-07T00:09:10;98141.72;;;12.14;65.92
43741;BME280;29352;48.708;9.290;2023-09-07T00:11:41;98141.09;;;12.12;65.76
43741;BME280;29352;48.708;9.290;2023-09-07T00:14:06;98133.84;;;12.19;65.80
43741;BME280;29352;48.708;9.290;2023-09-07T00:16:33;98131.81;;;11.96;66.25
43741;BME280;29352;48.708;9.290;2023-09-07T00:19:03;98143.44;;;11.83;66.95
43741;BME280;29352;48.708;9.290;2023-09-07T00:21:29;98135.06;;;11.73;65.65
43741;BME280;29352;48.708;9.290;2023-09-07T00:23:55;98134.97;;;11.87;66.06
43741;BME280;29352;48.708;9.290;2023-09-07T00:26:21;98140.00;;;11.51;67.33
43741;BME280;29352;48.708;9.290;2023-09-07T00:28:47;98140.84;;;11.45;67.40
43741;BME280;29352;48.708;9.290;2023-09-07T00:31:12;98136.53;;;11.94;65.52
43741;BME280;29352;48.708;9.290;2023-09-07T00:33:38;98130.38;;;11.94;65.39
43741;BME280;29352;48.708;9.290;2023-09-07T00:36:04;98135.47;;;11.77;65.67
43741;BME280;29352;48.708;9.290;2023-09-07T00:38:29;98137.66;;;11.62;66.56
43741;BME280;29352;48.708;9.290;2023-09-07T00:40:55;98137.69;;;11.55;67.24
43741;BME280;29352;48.708;9.290;2023-09-07T00:43:20;98142.66;;;11.76;66.62
43741;BME280;29352;48.708;9.290;2023-09-07T00:45:46;98147.00;;;11.46;67.43
43741;BME280;29352;48.708;9.290;2023-09-07T00:48:13;98147.88;;;11.40;68.17
43741;BME280;29352;48.708;9.290;2023-09-07T00:50:42;98145.16;;;11.46;67.53
43741;BME280;29352;48.708;9.290;2023-09-07T00:53:10;98143.44;;;11.20;68.09
43741;BME280;29352;48.708;9.290;2023-09-07T00:55:36;98142.56;;;11.26;67.20
43741;BME280;29352;48.708;9.290;2023-09-07T00:58:04;98150.25;;;11.79;66.69
43741;BME280;29352;48.708;9.290;2023-09-07T01:00:30;98141.53;;;11.34;67.05
43741;BME280;29352;48.708;9.290;2023-09-07T01:02:56;98145.34;;;11.51;67.08
43741;BME280;29352;48.708;9.290;2023-09-07T01:08:29;98147.56;;;11.79;67.15
43741;BME280;29352;48.708;9.290;2023-09-07T01:14:41;98140.66;;;11.40;67.56
43741;BME280;29352;48.708;9.290;2023-09-07T01:17:09;98140.22;;;11.43;67.28
43741;BME280;29352;48.708;9.290;2023-09-07T01:19:36;98143.06;;;11.17;67.72
43741;BME280;29352;48.708;9.290;2023-09-07T01:22:02;98139.50;;;11.23;66.62
43741;BME280;29352;48.708;9.290;2023-09-07T01:24:30;98136.75;;;11.43;66.62
43741;BME280;29352;48.708;9.290;2023-09-07T01:26:59;98137.06;;;11.21;67.28
43741;BME280;29352;48.708;9.290;2023-09-07T01:29:25;98137.53;;;11.11;67.34
43741;BME280;29352;48.708;9.290;2023-09-07T01:31:54;98145.25;;;10.81;68.12
43741;BME280;29352;48.708;9.290;2023-09-07T01:34:20;98136.25;;;10.82;68.34
43741;BME280;29352;48.708;9.290;2023-09-07T01:36:46;98131.44;;;10.98;67.75
43741;BME280;29352;48.708;9.290;2023-09-07T01:39:11;98129.00;;;11.28;67.19
43741;BME280;29352;48.708;9.290;2023-09-07T01:41:37;98136.31;;;11.46;66.20
43741;BME280;29352;48.708;9.290;2023-09-07T01:44:02;98132.16;;;11.18;66.40
43741;BME280;29352;48.708;9.290;2023-09-07T01:46:28;98128.31;;;11.07;66.48
43741;BME280;29352;48.708;9.290;2023-09-07T01:48:53;98132.06;;;11.00;66.16
43741;BME280;29352;48.708;9.290;2023-09-07T01:51:19;98138.41;;;10.99;66.86
43741;BME280;29352;48.708;9.290;2023-09-07T01:53:47;98132.59;;;11.08;66.66
43741;BME280;29352;48.708;9.290;2023-09-07T01:56:14;98143.34;;;10.95;67.61
43741;BME280;29352;48.708;9.290;2023-09-07T01:58:41;98143.31;;;11.02;67.58
43741;BME280;29352;48.708;9.290;2023-09-07T02:01:06;98142.41;;;10.83;67.42
43741;BME280;29352;48.708;9.290;2023-09-07T02:03:32;98144.94;;;10.64;67.75
43741;BME280;29352;48.708;9.290;2023-09-07T02:05:57;98141.06;;;10.54;67.68
43741;BME280;29352;48.708;9.290;2023-09-07T02:08:23;98146.94;;;10.82;65.86
43741;BME280;29352;48.708;9.290;2023-09-07T02:10:48;98141.03;;;10.60;67.11
43741;BME280;29352;48.708;9.290;2023-09-07T02:13:13;98144.94;;;10.64;67.32
43741;BME280;29352;48.708;9.290;2023-09-07T02:15:39;98136.97;;;10.58;68.05
43741;BME280;29352;48.708;9.290;2023-09-07T02:18:07;98134.06;;;10.59;67.26
43741;BME280;29352;48.708;9.290;2023-09-07T02:20:33;98135.88;;;10.72;68.42
43741;BME280;29352;48.708;9.290;2023-09-07T02:22:59;98141.72;;;10.94;67.36
43741;BME280;29352;48.708;9.290;2023-09-07T02:25:25;98144.03;;;9.99;70.93
43741;BME280;29352;48.708;9.290;2023-09-07T02:27:51;98143.13;;;10.52;68.59
43741;BME280;29352;48.708;9.290;2023-09-07T02:30:16;98142.31;;;10.51;68.61
43741;BME280;29352;48.708;9.290;2023-09-07T02:32:43;98147.66;;;10.45;68.32
43741;BME280;29352;48.708;9.290;2023-09-07T02:35:09;98140.66;;;10.43;68.57
43741;BME280;29352;48.708;9.290;2023-09-07T02:37:35;98144.56;;;10.61;68.33
43741;BME280;29352;48.708;9.290;2023-09-07T02:40:01;98141.59;;;10.82;67.66
43741;BME280;29352;48.708;9.290;2023-09-07T02:42:26;98136.34;;;10.56;67.71
43741;BME280;29352;48.708;9.290;2023-09-07T02:44:52;98139.28;;;10.14;69.22
43741;BME280;29352;48.708;9.290;2023-09-07T02:47:18;98142.97;;;10.33;67.89
43741;BME280;29352;48.708;9.290;2023-09-07T02:49:44;98137.97;;;10.43;67.88
43741;BME280;29352;48.708;9.290;2023-09-07T02:52:09;98139.69;;;10.25;67.24
43741;BME280;29352;48.708;9.290;2023-09-07T02:54:35;98142.91;;;10.40;67.49
43741;BME280;29352;48.708;9.290;2023-09-07T02:57:00;98142.34;;;10.31;66.72
43741;BME280;29352;48.708;9.290;2023-09-07T02:59:26;98130.59;;;10.46;68.38
43741;BME280;29352;48.708;9.290;2023-09-07T03:01:51;98136.78;;;10.26;68.65
43741;BME280;29352;48.708;9.290;2023-09-07T03:04:16;98138.06;;;10.24;69.98
43741;BME280;29352;48.708;9.290;2023-09-07T03:06:42;98129.78;;;10.45;70.56
43741;BME280;29352;48.708;9.290;2023-09-07T03:09:07;98133.31;;;10.19;70.52
43741;BME280;29352;48.708;9.290;2023-09-07T03:11:34;98127.94;;;10.46;67.79
43741;BME280;29352;48.708;9.290;2023-09-07T03:14:00;98124.03;;;10.41;67.33
43741;BME280;29352;48.708;9.290;2023-09-07T03:16:26;98121.56;;;10.40;66.85
43741;BME280;29352;48.708;9.290;2023-09-07T03:18:52;98119.38;;;10.30;66.46
43741;BME280;29352;48.708;9.290;2023-09-07T03:21:17;98118.63;;;9.83;68.93
43741;BME280;29352;48.708;9.290;2023-09-07T03:23:43;98119.75;;;10.40;68.19
43741;BME280;29352;48.708;9.290;2023-09-07T03:26:09;98124.50;;;10.18;67.39
43741;BME280;29352;48.708;9.290;2023-09-07T03:28:34;98118.78;;;10.02;67.18
43741;BME280;29352;48.708;9.290;2023-09-07T03:31:00;98122.50;;;9.94;67.28
43741;BME280;29352;48.708;9.290;2023-09-07T03:33:26;98131.34;;;9.81;67.76
43741;BME280;29352;48.708;9.290;2023-09-07T03:35:51;98128.28;;;9.71;68.12
43741;BME280;29352;48.708;9.290;2023-09-07T03:38:17;98128.44;;;9.96;67.01
43741;BME280;29352;48.708;9.290;2023-09-07T03:40:42;98124.75;;;9.97;66.51
43741;BME280;29352;48.708;9.290;2023-09-07T03:43:09;98130.94;;;9.64;67.85
43741;BME280;29352;48.708;9.290;2023-09-07T03:45:34;98129.09;;;9.65;68.54
43741;BME280;29352;48.708;9.290;2023-09-07T03:48:00;98130.94;;;9.71;68.04
43741;BME280;29352;48.708;9.290;2023-09-07T03:50:25;98124.34;;;9.74;67.20
43741;BME280;29352;48.708;9.290;2023-09-07T03:52:51;98125.56;;;9.58;67.62
43741;BME280;29352;48.708;9.290;2023-09-07T03:55:17;98123.34;;;9.75;67.43
43741;BME280;29352;48.708;9.290;2023-09-07T03:57:42;98124.13;;;9.48;68.07
43741;BME280;29352;48.708;9.290;2023-09-07T04:00:09;98123.53;;;9.73;67.64
43741;BME280;29352;48.708;9.290;2023-09-07T04:02:35;98126.38;;;9.58;68.89
43741;BME280;29352;48.708;9.290;2023-09-07T04:05:00;98127.81;;;9.61;68.23
43741;BME280;29352;48.708;9.290;2023-09-07T04:07:30;98131.50;;;9.40;68.89
43741;BME280;29352;48.708;9.290;2023-09-07T04:09:56;98126.00;;;9.68;69.81
43741;BME280;29352;48.708;9.290;2023-09-07T04:12:21;98126.78;;;9.48;69.91
43741;BME280;29352;48.708;9.290;2023-09-07T04:14:47;98129.03;;;9.52;69.21
43741;BME280;29352;48.708;9.290;2023-09-07T04:17:12;98126.78;;;9.48;67.81
43741;BME280;29352;48.708;9.290;2023-09-07T04:19:37;98125.19;;;9.67;67.02
43741;BME280;29352;48.708;9.290;2023-09-07T04:22:03;98128.47;;;9.63;67.35
43741;BME280;29352;48.708;9.290;2023-09-07T04:24:29;98126.38;;;9.52;67.86
43741;BME280;29352;48.708;9.290;2023-09-07T04:26:59;98122.72;;;9.66;66.82
43741;BME280;29352;48.708;9.290;2023-09-07T04:29:29;98123.34;;;9.75;67.91
43741;BME280;29352;48.708;9.290;2023-09-07T04:31:55;98116.75;;;10.04;67.41
43741;BME280;29352;48.708;9.290;2023-09-07T04:34:21;98121.66;;;9.47;68.33
43741;BME280;29352;48.708;9.290;2023-09-07T04:36:47;98126.13;;;9.20;70.17
43741;BME280;29352;48.708;9.290;2023-09-07T04:39:13;98130.09;;;9.64;69.89
43741;BME280;29352;48.708;9.290;2023-09-07T04:41:42;98123.75;;;9.78;68.66
43741;BME280;29352;48.708;9.290;2023-09-07T04:44:07;98119.44;;;9.57;68.74
43741;BME280;29352;48.708;9.290;2023-09-07T04:46:32;98125.34;;;9.59;68.96
43741;BME280;29352;48.708;9.290;2023-09-07T04:48:58;98129.22;;;9.57;67.92
43741;BME280;29352;48.708;9.290;2023-09-07T04:51:23;98128.00;;;9.53;68.24
43741;BME280;29352;48.708;9.290;2023-09-07T04:53:51;98126.41;;;9.65;67.87
43741;BME280;29352;48.708;9.290;2023-09-07T04:56:16;98117.63;;;9.64;68.49
43741;BME280;29352;48.708;9.290;2023-09-07T04:58:42;98119.84;;;9.94;67.39
43741;BME280;29352;48.708;9.290;2023-09-07T05:01:11;98121.97;;;10.43;66.34
43741;BME280;29352;48.708;9.290;2023-09-07T05:03:37;98119.69;;;10.60;66.22
43741;BME280;29352;48.708;9.290;2023-09-07T05:06:06;98125.13;;;11.24;65.40
43741;BME280;29352;48.708;9.290;2023-09-07T05:08:32;98124.06;;;11.63;64.46
43741;BME280;29352;48.708;9.290;2023-09-07T05:11:00;98122.88;;;12.46;62.94
43741;BME280;29352;48.708;9.290;2023-09-07T05:13:28;98126.56;;;12.82;61.57
43741;BME280;29352;48.708;9.290;2023-09-07T05:15:55;98128.31;;;13.06;61.00
43741;BME280;29352;48.708;9.290;2023-09-07T05:18:22;98131.94;;;13.84;58.83
43741;BME280;29352;48.708;9.290;2023-09-07T05:20:48;98138.69;;;13.86;60.06
43741;BME280;29352;48.708;9.290;2023-09-07T05:23:16;98140.56;;;14.56;57.84
43741;BME280;29352;48.708;9.290;2023-09-07T05:25:53;98141.53;;;14.79;58.42
43741;BME280;29352;48.708;9.290;2023-09-07T05:28:21;98148.28;;;15.67;55.46
43741;BME280;29352;48.708;9.290;2023-09-07T05:30:48;98149.63;;;14.67;56.93
43741;BME280;29352;48.708;9.290;2023-09-07T05:33:15;98148.25;;;14.93;58.35
43741;BME280;29352;48.708;9.290;2023-09-07T05:35:43;98153.53;;;15.91;56.07
43741;BME280;29352;48.708;9.290;2023-09-07T05:38:08;98146.84;;;15.93;56.49
43741;BME280;29352;48.708;9.290;2023-09-07T05:40:39;98150.09;;;16.68;55.03
43741;BME280;29352;48.708;9.290;2023-09-07T05:43:07;98144.03;;;17.26;54.17
43741;BME280;29352;48.708;9.290;2023-09-07T05:45:40;98143.25;;;18.33;52.15
43741;BME280;29352;48.708;9.290;2023-09-07T05:48:07;98145.13;;;17.58;54.41
43741;BME280;29352;48.708;9.290;2023-09-07T05:50:35;98150.00;;;17.07;53.46
43741;BME280;29352;48.708;9.290;2023-09-07T05:53:02;98152.16;;;17.59;53.10
43741;BME280;29352;48.708;9.290;2023-09-07T05:55:28;98146.16;;;17.52;52.91
43741;BME280;29352;48.708;9.290;2023-09-07T05:57:54;98153.63;;;17.71;52.32
43741;BME280;29352;48.708;9.290;2023-09-07T06:00:21;98146.97;;;17.03;54.54
43741;BME280;29352;48.708;9.290;2023-09-07T06:02:47;98146.22;;;17.08;53.88
43741;BME280;29352;48.708;9.290;2023-09-07T06:05:13;98143.97;;;16.99;54.46
43741;BME280;29352;48.708;9.290;2023-09-07T06:07:39;98146.56;;;16.12;55.47
43741;BME280;29352;48.708;9.290;2023-09-07T06:10:04;98150.44;;;16.54;54.92
43741;BME280;29352;48.708;9.290;2023-09-07T06:12:31;98142.97;;;17.06;54.15
43741;BME280;29352;48.708;9.290;2023-09-07T06:14:57;98145.91;;;16.60;55.07
43741;BME280;29352;48.708;9.290;2023-09-07T06:17:23;98140.47;;;16.99;54.91
43741;BME280;29352;48.708;9.290;2023-09-07T06:19:48;98140.81;;;17.89;53.36
43741;BME280;29352;48.708;9.290;2023-09-07T06:22:14;98139.63;;;19.32;51.08
43741;BME280;29352;48.708;9.290;2023-09-07T06:24:39;98132.63;;;19.88;49.81
43741;BME280;29352;48.708;9.290;2023-09-07T06:27:05;98135.09;;;19.69;50.20
43741;BME280;29352;48.708;9.290;2023-09-07T06:29:30;98138.03;;;20.08;50.47
43741;BME280;29352;48.708;9.290;2023-09-07T06:31:56;98136.41;;;20.17;49.78
43741;BME280;29352;48.708;9.290;2023-09-07T06:34:21;98137.91;;;20.69;49.42
43741;BME280;29352;48.708;9.290;2023-09-07T06:36:46;98134.28;;;20.94;49.11
43741;BME280;29352;48.708;9.290;2023-09-07T06:39:12;98133.53;;;22.55;47.14
43741;BME280;29352;48.708;9.290;2023-09-07T06:41:37;98129.00;;;21.58;48.08
43741;BME280;29352;48.708;9.290;2023-09-07T06:44:03;98130.88;;;22.98;46.94
43741;BME280;29352;48.708;9.290;2023-09-07T06:46:29;98131.69;;;22.98;46.73
43741;BME280;29352;48.708;9.290;2023-09-07T06:48:54;98137.50;;;22.43;47.18
43741;BME280;29352;48.708;9.290;2023-09-07T06:51:20;98133.53;;;21.28;48.20
43741;BME280;29352;48.708;9.290;2023-09-07T06:53:45;98130.53;;;23.75;45.27
43741;BME280;29352;48.708;9.290;2023-09-07T06:56:11;98135.00;;;23.33;45.73
43741;BME280;29352;48.708;9.290;2023-09-07T06:58:37;98133.47;;;22.84;46.13
43741;BME280;29352;48.708;9.290;2023-09-07T07:01:02;98132.41;;;24.53;44.38
43741;BME280;29352;48.708;9.290;2023-09-07T07:03:30;98141.84;;;23.82;44.98
43741;BME280;29352;48.708;9.290;2023-09-07T07:05:56;98137.94;;;24.48;44.07
43741;BME280;29352;48.708;9.290;2023-09-07T07:08:23;98132.66;;;25.43;43.73
43741;BME280;29352;48.708;9.290;2023-09-07T07:10:49;98139.88;;;24.48;44.12
43741;BME280;29352;48.708;9.290;2023-09-07T07:13:14;98139.16;;;23.96;44.74
43741;BME280;29352;48.708;9.290;2023-09-07T07:15:41;98146.41;;;22.20;46.97
43741;BME280;29352;48.708;9.290;2023-09-07T07:18:07;98131.97;;;23.53;45.19
43741;BME280;29352;48.708;9.290;2023-09-07T07:20:37;98133.28;;;24.35;44.56
43741;BME280;29352;48.708;9.290;2023-09-07T07:23:04;98127.00;;;25.85;42.46
43741;BME280;29352;48.708;9.290;2023-09-07T07:25:31;98126.91;;;26.61;41.85
43741;BME280;29352;48.708;9.290;2023-09-07T07:27:59;98131.88;;;27.77;40.61
43741;BME280;29352;48.708;9.290;2023-09-07T07:30:29;98129.63;;;27.35;40.95
43741;BME280;29352;48.708;9.290;2023-09-07T07:32:55;98131.56;;;29.02;39.57
43741;BME280;29352;48.708;9.290;2023-09-07T07:35:21;98128.69;;;29.19;39.27
43741;BME280;29352;48.708;9.290;2023-09-07T07:37:48;98128.28;;;28.02;39.90
43741;BME280;29352;48.708;9.290;2023-09-07T07:40:14;98131.88;;;27.33;40.85
43741;BME280;29352;48.708;9.290;2023-09-07T07:42:40;98131.19;;;28.53;40.52
43741;BME280;29352;48.708;9.290;2023-09-07T07:45:07;98133.78;;;28.02;40.28
43741;BME280;29352;48.708;9.290;2023-09-07T07:47:33;98133.84;;;29.42;38.95
43741;BME280;29352;48.708;9.290;2023-09-07T07:49:59;98134.03;;;29.16;39.21
43741;BME280;29352;48.708;9.290;2023-09-07T07:52:24;98129.53;;;28.22;40.49
43741;BME280;29352;48.708;9.290;2023-09-07T07:54:49;98146.06;;;25.31;43.22
43741;BME280;29352;48.708;9.290;2023-09-07T07:57:15;98127.31;;;29.67;38.53
43741;BME280;29352;48.708;9.290;2023-09-07T07:59:40;98126.94;;;28.64;40.62
43741;BME280;29352;48.708;9.290;2023-09-07T08:02:05;98135.34;;;26.82;41.84
43741;BME280;29352;48.708;9.290;2023-09-07T08:04:32;98130.53;;;28.86;40.21
43741;BME280;29352;48.708;9.290;2023-09-07T08:06:58;98126.75;;;29.41;38.91
43741;BME280;29352;48.708;9.290;2023-09-07T08:09:31;98132.91;;;26.63;42.13
43741;BME280;29352;48.708;9.290;2023-09-07T08:11:57;98127.56;;;28.32;40.16
43741;BME280;29352;48.708;9.290;2023-09-07T08:14:24;98128.88;;;28.64;40.54
43741;BME280;29352;48.708;9.290;2023-09-07T08:16:50;98123.44;;;28.08;40.82
43741;BME280;29352;48.708;9.290;2023-09-07T08:19:16;98127.47;;;26.40;42.64
43741;BME280;29352;48.708;9.290;2023-09-07T08:21:42;98130.50;;;24.68;44.73
43741;BME280;29352;48.708;9.290;2023-09-07T08:24:09;98113.72;;;26.54;42.76
43741;BME280;29352;48.708;9.290;2023-09-07T08:26:36;98113.78;;;26.40;42.68
43741;BME280;29352;48.708;9.290;2023-09-07T08:29:02;98109.44;;;27.92;41.34
43741;BME280;29352;48.708;9.290;2023-09-07T08:31:37;98106.44;;;28.23;40.78
43741;BME280;29352;48.708;9.290;2023-09-07T08:34:08;98110.53;;;28.56;40.41
43741;BME280;29352;48.708;9.290;2023-09-07T08:36:40;98111.94;;;27.59;41.34
43741;BME280;29352;48.708;9.290;2023-09-07T08:39:07;98112.25;;;27.14;42.41
43741;BME280;29352;48.708;9.290;2023-09-07T08:41:42;98112.56;;;27.39;41.44
43741;BME280;29352;48.708;9.290;2023-09-07T08:44:10;98116.38;;;27.98;40.77
43741;BME280;29352;48.708;9.290;2023-09-07T08:46:37;98118.28;;;29.67;39.58
43741;BME280;29352;48.708;9.290;2023-09-07T08:49:03;98117.44;;;28.15;41.04
43741;BME280;29352;48.708;9.290;2023-09-07T08:51:30;98121.06;;;29.04;40.42
43741;BME280;29352;48.708;9.290;2023-09-07T08:53:58;98121.63;;;30.18;38.59
43741;BME280;29352;48.708;9.290;2023-09-07T08:56:25;98117.56;;;28.95;39.98
43741;BME280;29352;48.708;9.290;2023-09-07T08:58:51;98118.00;;;27.91;41.67
43741;BME280;29352;48.708;9.290;2023-09-07T09:01:19;98122.00;;;28.49;41.43
43741;BME280;29352;48.708;9.290;2023-09-07T09:03:49;98126.34;;;26.02;43.19
43741;BME280;29352;48.708;9.290;2023-09-07T09:06:21;98130.19;;;26.32;43.10
43741;BME280;29352;48.708;9.290;2023-09-07T09:08:56;98119.31;;;27.06;42.02
43741;BME280;29352;48.708;9.290;2023-09-07T09:11:23;98123.38;;;26.21;43.16
43741;BME280;29352;48.708;9.290;2023-09-07T09:13:52;98120.72;;;26.86;43.12
43741;BME280;29352;48.708;9.290;2023-09-07T09:16:20;98124.72;;;25.78;43.85
43741;BME280;29352;48.708;9.290;2023-09-07T09:18:54;98125.31;;;24.39;45.41
43741;BME280;29352;48.708;9.290;2023-09-07T09:21:25;98124.38;;;26.33;43.81
43741;BME280;29352;48.708;9.290;2023-09-07T09:23:54;98112.56;;;27.04;44.01
43741;BME280;29352;48.708;9.290;2023-09-07T09:26:21;98112.06;;;27.54;43.44
43741;BME280;29352;48.708;9.290;2023-09-07T09:28:48;98110.19;;;28.57;41.59
43741;BME280;29352;48.708;9.290;2023-09-07T09:31:17;98112.72;;;28.24;41.20
43741;BME280;29352;48.708;9.290;2023-09-07T09:33:48;98110.19;;;28.87;40.51
43741;BME280;29352;48.708;9.290;2023-09-07T09:36:17;98106.84;;;29.02;41.37
43741;BME280;29352;48.708;9.290;2023-09-07T09:38:47;98103.53;;;28.28;41.63
43741;BME280;29352;48.708;9.290;2023-09-07T09:41:19;98091.25;;;30.27;39.68
43741;BME280;29352;48.708;9.290;2023-09-07T09:43:46;98096.53;;;30.32;39.64
43741;BME280;29352;48.708;9.290;2023-09-07T09:46:17;98102.78;;;28.11;41.97
43741;BME280;29352;48.708;9.290;2023-09-07T09:48:43;98100.19;;;28.14;42.10
43741;BME280;29352;48.708;9.290;2023-09-07T09:51:10;98096.66;;;28.05;41.72
43741;BME280;29352;48.708;9.290;2023-09-07T09:53:39;98099.31;;;27.41;42.79
43741;BME280;29352;48.708;9.290;2023-09-07T09:56:07;98100.13;;;27.24;43.36
43741;BME280;29352;48.708;9.290;2023-09-07T09:58:32;98100.22;;;26.27;44.93
43741;BME280;29352;48.708;9.290;2023-09-07T10:01:00;98097.03;;;27.77;43.18
43741;BME280;29352;48.708;9.290;2023-09-07T10:03:37;98089.34;;;26.44;43.93
43741;BME280;29352;48.708;9.290;2023-09-07T10:06:12;98091.78;;;26.06;44.91
43741;BME280;29352;48.708;9.290;2023-09-07T10:09:03;98097.47;;;25.19;45.88
43741;BME280;29352;48.708;9.290;2023-09-07T10:11:36;98089.03;;;27.29;43.22
43741;BME280;29352;48.708;9.290;2023-09-07T10:14:04;98086.72;;;27.83;42.85
43741;BME280;29352;48.708;9.290;2023-09-07T10:16:46;98083.75;;;28.05;42.63
43741;BME280;29352;48.708;9.290;2023-09-07T10:21:43;98078.00;;;28.66;42.70
43741;BME280;29352;48.708;9.290;2023-09-07T10:24:08;98081.16;;;28.09;42.27
43741;BME280;29352;48.708;9.290;2023-09-07T10:26:34;98079.16;;;28.36;42.44
43741;BME280;29352;48.708;9.290;2023-09-07T10:29:01;98073.81;;;27.75;42.75
43741;BME280;29352;48.708;9.290;2023-09-07T10:31:29;98068.00;;;27.94;42.48
43741;BME280;29352;48.708;9.290;2023-09-07T10:33:56;98070.53;;;28.08;42.92
43741;BME280;29352;48.708;9.290;2023-09-07T10:36:26;98069.69;;;28.75;42.17
43741;BME280;29352;48.708;9.290;2023-09-07T10:38:56;98061.56;;;29.29;41.37
43741;BME280;29352;48.708;9.290;2023-09-07T10:41:22;98066.75;;;28.59;42.66
43741;BME280;29352;48.708;9.290;2023-09-07T10:43:53;98064.50;;;29.03;42.13
43741;BME280;29352;48.708;9.290;2023-09-07T10:46:21;98055.53;;;28.35;43.25
43741;BME280;29352;48.708;9.290;2023-09-07T10:48:52;98062.09;;;28.21;42.64
43741;BME280;29352;48.708;9.290;2023-09-07T10:51:19;98062.19;;;27.95;43.29
43741;BME280;29352;48.708;9.290;2023-09-07T10:53:45;98059.63;;;28.58;42.24
43741;BME280;29352;48.708;9.290;2023-09-07T10:56:11;98054.13;;;28.28;42.95
43741;BME280;29352;48.708;9.290;2023-09-07T10:58:38;98052.28;;;27.39;43.15
43741;BME280;29352;48.708;9.290;2023-09-07T11:01:05;98056.31;;;28.14;43.11
43741;BME280;29352;48.708;9.290;2023-09-07T11:03:31;98048.06;;;27.67;43.06
43741;BME280;29352;48.708;9.290;2023-09-07T11:06:10;98043.38;;;27.76;42.83
43741;BME280;29352;48.708;9.290;2023-09-07T11:08:39;98047.31;;;28.05;42.03
43741;BME280;29352;48.708;9.290;2023-09-07T11:11:05;98044.22;;;27.51;42.53
43741;BME280;29352;48.708;9.290;2023-09-07T11:13:31;98040.78;;;27.80;43.38
43741;BME280;29352;48.708;9.290;2023-09-07T11:15:58;98037.59;;;28.46;42.59
43741;BME280;29352;48.708;9.290;2023-09-07T11:18:25;98049.69;;;28.45;41.83
43741;BME280;29352;48.708;9.290;2023-09-07T11:20:52;98041.34;;;28.03;42.73
43741;BME280;29352;48.708;9.290;2023-09-07T11:23:20;98040.31;;;27.69;42.70
43741;BME280;29352;48.708;9.290;2023-09-07T11:25:48;98037.53;;;27.87;42.05
43741;BME280;29352;48.708;9.290;2023-09-07T11:28:17;98031.16;;;27.48;43.41
43741;BME280;29352;48.708;9.290;2023-09-07T11:33:20;98019.22;;;29.09;42.11
43741;BME280;29352;48.708;9.290;2023-09-07T11:35:46;98019.75;;;29.03;42.14
43741;BME280;29352;48.708;9.290;2023-09-07T11:38:14;98017.34;;;28.59;42.30
43741;BME280;29352;48.708;9.290;2023-09-07T11:40:42;98013.75;;;28.08;42.52
43741;BME280;29352;48.708;9.290;2023-09-07T11:43:12;98012.91;;;28.46;42.61
43741;BME280;29352;48.708;9.290;2023-09-07T11:45:39;98011.28;;;28.45;42.86
43741;BME280;29352;48.708;9.290;2023-09-07T11:48:05;98020.88;;;28.30;42.12
43741;BME280;29352;48.708;9.290;2023-09-07T11:50:31;98022.59;;;28.35;42.51
43741;BME280;29352;48.708;9.290;2023-09-07T11:52:57;98014.41;;;28.05;42.25
43741;BME280;29352;48.708;9.290;2023-09-07T11:55:22;98012.94;;;28.08;42.48
43741;BME280;29352;48.708;9.290;2023-09-07T11:57:48;98016.53;;;28.29;42.84
43741;BME280;29352;48.708;9.290;2023-09-07T12:00:14;98006.53;;;28.54;41.34
43741;BME280;29352;48.708;9.290;2023-09-07T12:02:40;98011.50;;;28.61;42.90
43741;BME280;29352;48.708;9.290;2023-09-07T12:05:07;98003.47;;;29.18;41.19
43741;BME280;29352;48.708;9.290;2023-09-07T12:07:39;98001.72;;;29.47;40.72
43741;BME280;29352;48.708;9.290;2023-09-07T12:10:05;97993.00;;;29.45;41.06
43741;BME280;29352;48.708;9.290;2023-09-07T12:12:35;97997.63;;;29.20;41.53
43741;BME280;29352;48.708;9.290;2023-09-07T12:15:08;97988.91;;;29.51;40.84
43741;BME280;29352;48.708;9.290;2023-09-07T12:17:34;97993.81;;;29.45;41.60
43741;BME280;29352;48.708;9.290;2023-09-07T12:20:00;97997.28;;;28.88;40.33
43741;BME280;29352;48.708;9.290;2023-09-07T12:22:26;97996.22;;;29.47;40.81
43741;BME280;29352;48.708;9.290;2023-09-07T12:24:52;97995.56;;;29.50;40.20
43741;BME280;29352;48.708;9.290;2023-09-07T12:27:18;97983.00;;;29.28;40.48
43741;BME280;29352;48.708;9.290;2023-09-07T12:29:44;97993.44;;;28.39;42.13
43741;BME280;29352;48.708;9.290;2023-09-07T12:32:10;97986.81;;;28.82;41.50
43741;BME280;29352;48.708;9.290;2023-09-07T12:34:36;97986.34;;;29.34;40.40
43741;BME280;29352;48.708;9.290;2023-09-07T12:37:02;97986.16;;;28.85;42.06
43741;BME280;29352;48.708;9.290;2023-09-07T12:39:31;97978.28;;;29.62;42.28
43741;BME280;29352;48.708;9.290;2023-09-07T12:41:57;97978.66;;;29.73;41.93
43741;BME280;29352;48.708;9.290;2023-09-07T12:44:22;97978.59;;;29.48;42.48
43741;BME280;29352;48.708;9.290;2023-09-07T12:46:48;97966.44;;;29.37;42.90
43741;BME280;29352;48.708;9.290;2023-09-07T12:49:13;97969.47;;;28.90;42.58
43741;BME280;29352;48.708;9.290;2023-09-07T12:51:40;97973.09;;;29.48;42.75
43741;BME280;29352;48.708;9.290;2023-09-07T12:54:06;97967.91;;;29.92;42.63
43741;BME280;29352;48.708;9.290;2023-09-07T12:56:32;97962.50;;;29.96;42.26
43741;BME280;29352;48.708;9.290;2023-09-07T12:58:58;97963.00;;;29.40;42.59
43741;BME280;29352;48.708;9.290;2023-09-07T13:01:25;97969.91;;;29.46;42.67
43741;BME280;29352;48.708;9.290;2023-09-07T13:03:51;97969.66;;;29.39;41.44
43741;BME280;29352;48.708;9.290;2023-09-07T13:06:17;97963.81;;;29.07;42.35
43741;BME280;29352;48.708;9.290;2023-09-07T13:08:43;97965.38;;;29.87;41.86
43741;BME280;29352;48.708;9.290;2023-09-07T13:11:10;97969.00;;;29.66;42.20
43741;BME280;29352;48.708;9.290;2023-09-07T13:13:36;97963.75;;;29.86;42.64